sensor_id;sensor_type;location;lat;lon;timestamp;temperature;humidity
70826;SHT31;58446;41.490;22.098;2022-10-17T00:01:05;13.57;69.73
70826;SHT31;58446;41.490;22.098;2022-10-17T00:03:31;13.58;69.36
70826;SHT31;58446;41.490;22.098;2022-10-17T00:05:57;13.68;69.24
70826;SHT31;58446;41.490;22.098;2022-10-17T00:08:22;13.83;68.44
70826;SHT31;58446;41.490;22.098;2022-10-17T00:11:03;13.78;68.58
70826;SHT31;58446;41.490;22.098;2022-10-17T00:13:30;13.85;68.58
70826;SHT31;58446;41.490;22.098;2022-10-17T00:15:56;13.75;68.30
70826;SHT31;58446;41.490;22.098;2022-10-17T00:18:23;13.65;68.72
70826;SHT31;58446;41.490;22.098;2022-10-17T00:20:49;13.65;68.31
70826;SHT31;58446;41.490;22.098;2022-10-17T00:23:15;13.64;68.75
70826;SHT31;58446;41.490;22.098;2022-10-17T00:25:41;13.79;68.32
70826;SHT31;58446;41.490;22.098;2022-10-17T00:28:11;13.68;67.05
70826;SHT31;58446;41.490;22.098;2022-10-17T00:30:37;13.16;69.06
70826;SHT31;58446;41.490;22.098;2022-10-17T00:33:03;13.31;69.30
70826;SHT31;58446;41.490;22.098;2022-10-17T00:35:29;13.11;69.62
70826;SHT31;58446;41.490;22.098;2022-10-17T00:37:55;13.11;69.82
70826;SHT31;58446;41.490;22.098;2022-10-17T00:40:21;13.44;68.97
70826;SHT31;58446;41.490;22.098;2022-10-17T00:42:47;13.27;69.37
70826;SHT31;58446;41.490;22.098;2022-10-17T00:45:27;13.34;68.78
70826;SHT31;58446;41.490;22.098;2022-10-17T00:48:03;13.20;68.43
70826;SHT31;58446;41.490;22.098;2022-10-17T00:50:30;13.11;69.16
70826;SHT31;58446;41.490;22.098;2022-10-17T00:53:00;13.17;68.94
70826;SHT31;58446;41.490;22.098;2022-10-17T00:55:30;13.24;69.07
70826;SHT31;58446;41.490;22.098;2022-10-17T00:57:59;13.23;68.83
70826;SHT31;58446;41.490;22.098;2022-10-17T01:00:26;13.13;68.75
70826;SHT31;58446;41.490;22.098;2022-10-17T01:02:52;13.40;68.21
70826;SHT31;58446;41.490;22.098;2022-10-17T01:05:18;13.40;68.27
70826;SHT31;58446;41.490;22.098;2022-10-17T01:07:45;13.38;67.97
70826;SHT31;58446;41.490;22.098;2022-10-17T01:10:12;13.40;67.64
70826;SHT31;58446;41.490;22.098;2022-10-17T01:12:47;13.24;67.45
70826;SHT31;58446;41.490;22.098;2022-10-17T01:15:35;13.10;67.92
70826;SHT31;58446;41.490;22.098;2022-10-17T01:30:40;13.17;68.33
70826;SHT31;58446;41.490;22.098;2022-10-17T01:33:11;13.16;68.24
70826;SHT31;58446;41.490;22.098;2022-10-17T01:35:57;13.24;68.20
70826;SHT31;58446;41.490;22.098;2022-10-17T01:38:32;13.17;68.49
70826;SHT31;58446;41.490;22.098;2022-10-17T01:41:15;13.11;68.28
70826;SHT31;58446;41.490;22.098;2022-10-17T01:44:13;13.13;68.54
70826;SHT31;58446;41.490;22.098;2022-10-17T01:46:42;13.23;68.37
70826;SHT31;58446;41.490;22.098;2022-10-17T01:49:12;13.14;68.41
70826;SHT31;58446;41.490;22.098;2022-10-17T01:52:09;13.07;68.84
70826;SHT31;58446;41.490;22.098;2022-10-17T01:54:51;13.34;68.00
70826;SHT31;58446;41.490;22.098;2022-10-17T01:57:54;13.07;68.02
70826;SHT31;58446;41.490;22.098;2022-10-17T02:00:23;12.58;66.63
70826;SHT31;58446;41.490;22.098;2022-10-17T02:02:59;12.50;68.36
70826;SHT31;58446;41.490;22.098;2022-10-17T02:05:36;12.21;68.75
70826;SHT31;58446;41.490;22.098;2022-10-17T02:08:03;11.88;69.51
70826;SHT31;58446;41.490;22.098;2022-10-17T02:10:43;11.77;70.02
70826;SHT31;58446;41.490;22.098;2022-10-17T02:13:38;11.53;72.22
70826;SHT31;58446;41.490;22.098;2022-10-17T02:22:11;12.04;70.59
70826;SHT31;58446;41.490;22.098;2022-10-17T02:25:00;12.24;70.43
70826;SHT31;58446;41.490;22.098;2022-10-17T02:28:35;12.39;69.79
70826;SHT31;58446;41.490;22.098;2022-10-17T02:36:10;12.45;69.37
70826;SHT31;58446;41.490;22.098;2022-10-17T02:38:39;12.68;68.86
70826;SHT31;58446;41.490;22.098;2022-10-17T02:41:08;12.56;68.84
70826;SHT31;58446;41.490;22.098;2022-10-17T02:43:35;12.48;69.43
70826;SHT31;58446;41.490;22.098;2022-10-17T02:46:03;12.42;69.59
70826;SHT31;58446;41.490;22.098;2022-10-17T02:48:50;12.56;69.23
70826;SHT31;58446;41.490;22.098;2022-10-17T02:51:27;12.56;69.14
70826;SHT31;58446;41.490;22.098;2022-10-17T02:54:01;12.52;69.43
70826;SHT31;58446;41.490;22.098;2022-10-17T02:56:32;12.14;69.90
70826;SHT31;58446;41.490;22.098;2022-10-17T02:59:02;12.08;70.42
70826;SHT31;58446;41.490;22.098;2022-10-17T03:01:30;12.13;70.69
70826;SHT31;58446;41.490;22.098;2022-10-17T03:04:10;12.24;70.35
70826;SHT31;58446;41.490;22.098;2022-10-17T03:06:37;12.08;70.22
70826;SHT31;58446;41.490;22.098;2022-10-17T03:09:03;12.28;70.38
70826;SHT31;58446;41.490;22.098;2022-10-17T03:11:28;12.42;69.78
70826;SHT31;58446;41.490;22.098;2022-10-17T03:13:54;12.46;69.36
70826;SHT31;58446;41.490;22.098;2022-10-17T03:16:19;12.46;69.15
70826;SHT31;58446;41.490;22.098;2022-10-17T03:18:45;12.27;69.20
70826;SHT31;58446;41.490;22.098;2022-10-17T03:21:11;12.41;69.42
70826;SHT31;58446;41.490;22.098;2022-10-17T03:23:36;12.41;68.97
70826;SHT31;58446;41.490;22.098;2022-10-17T03:26:03;11.90;68.89
70826;SHT31;58446;41.490;22.098;2022-10-17T03:28:29;11.81;70.19
70826;SHT31;58446;41.490;22.098;2022-10-17T03:30:55;11.99;70.04
70826;SHT31;58446;41.490;22.098;2022-10-17T03:33:20;12.22;69.70
70826;SHT31;58446;41.490;22.098;2022-10-17T03:35:46;12.18;69.56
70826;SHT31;58446;41.490;22.098;2022-10-17T03:38:12;12.04;69.93
70826;SHT31;58446;41.490;22.098;2022-10-17T03:40:37;12.08;69.57
70826;SHT31;58446;41.490;22.098;2022-10-17T03:43:03;12.22;69.32
70826;SHT31;58446;41.490;22.098;2022-10-17T03:45:29;12.38;68.94
70826;SHT31;58446;41.490;22.098;2022-10-17T03:47:54;12.36;68.63
70826;SHT31;58446;41.490;22.098;2022-10-17T03:50:20;12.18;68.11
70826;SHT31;58446;41.490;22.098;2022-10-17T03:52:46;12.17;69.13
70826;SHT31;58446;41.490;22.098;2022-10-17T03:55:13;12.15;69.24
70826;SHT31;58446;41.490;22.098;2022-10-17T03:57:38;12.27;68.91
70826;SHT31;58446;41.490;22.098;2022-10-17T04:00:05;12.24;68.90
70826;SHT31;58446;41.490;22.098;2022-10-17T04:02:30;12.31;68.43
70826;SHT31;58446;41.490;22.098;2022-10-17T04:04:56;12.38;68.20
70826;SHT31;58446;41.490;22.098;2022-10-17T04:07:22;12.28;68.43
70826;SHT31;58446;41.490;22.098;2022-10-17T04:09:47;12.25;68.27
70826;SHT31;58446;41.490;22.098;2022-10-17T04:12:13;12.18;68.58
70826;SHT31;58446;41.490;22.098;2022-10-17T04:14:39;11.84;68.78
70826;SHT31;58446;41.490;22.098;2022-10-17T04:17:04;11.81;69.40
70826;SHT31;58446;41.490;22.098;2022-10-17T04:19:30;12.10;69.23
70826;SHT31;58446;41.490;22.098;2022-10-17T04:21:56;12.01;69.59
70826;SHT31;58446;41.490;22.098;2022-10-17T04:24:21;12.10;69.47
70826;SHT31;58446;41.490;22.098;2022-10-17T04:26:50;12.10;69.59
70826;SHT31;58446;41.490;22.098;2022-10-17T04:29:17;12.17;69.32
70826;SHT31;58446;41.490;22.098;2022-10-17T04:31:42;12.13;68.64
70826;SHT31;58446;41.490;22.098;2022-10-17T04:34:08;11.73;70.30
70826;SHT31;58446;41.490;22.098;2022-10-17T04:36:34;11.95;70.05
70826;SHT31;58446;41.490;22.098;2022-10-17T04:39:00;12.25;69.07
70826;SHT31;58446;41.490;22.098;2022-10-17T04:41:30;12.34;68.64
70826;SHT31;58446;41.490;22.098;2022-10-17T04:43:56;12.20;69.34
70826;SHT31;58446;41.490;22.098;2022-10-17T04:46:21;12.22;69.18
70826;SHT31;58446;41.490;22.098;2022-10-17T04:48:47;11.95;69.99
70826;SHT31;58446;41.490;22.098;2022-10-17T04:51:15;11.94;70.40
70826;SHT31;58446;41.490;22.098;2022-10-17T04:53:42;12.07;70.08
70826;SHT31;58446;41.490;22.098;2022-10-17T04:56:10;12.13;69.85
70826;SHT31;58446;41.490;22.098;2022-10-17T04:58:36;12.15;69.92
70826;SHT31;58446;41.490;22.098;2022-10-17T05:01:07;12.25;69.58
70826;SHT31;58446;41.490;22.098;2022-10-17T05:03:33;12.20;69.76
70826;SHT31;58446;41.490;22.098;2022-10-17T05:06:06;12.32;69.48
70826;SHT31;58446;41.490;22.098;2022-10-17T05:08:32;12.36;69.51
70826;SHT31;58446;41.490;22.098;2022-10-17T05:10:58;12.34;69.50
70826;SHT31;58446;41.490;22.098;2022-10-17T05:13:24;12.34;69.74
70826;SHT31;58446;41.490;22.098;2022-10-17T05:15:49;12.31;69.76
70826;SHT31;58446;41.490;22.098;2022-10-17T05:18:15;12.39;69.65
70826;SHT31;58446;41.490;22.098;2022-10-17T05:20:40;12.38;69.76
70826;SHT31;58446;41.490;22.098;2022-10-17T05:23:06;12.45;69.63
70826;SHT31;58446;41.490;22.098;2022-10-17T05:25:32;12.44;69.72
70826;SHT31;58446;41.490;22.098;2022-10-17T05:27:57;12.50;69.47
70826;SHT31;58446;41.490;22.098;2022-10-17T05:30:23;12.52;69.32
70826;SHT31;58446;41.490;22.098;2022-10-17T05:32:53;12.48;69.51
70826;SHT31;58446;41.490;22.098;2022-10-17T05:35:19;12.63;69.11
70826;SHT31;58446;41.490;22.098;2022-10-17T05:37:45;12.59;69.23
70826;SHT31;58446;41.490;22.098;2022-10-17T05:40:11;12.59;69.21
70826;SHT31;58446;41.490;22.098;2022-10-17T05:42:36;12.76;68.58
70826;SHT31;58446;41.490;22.098;2022-10-17T05:45:03;12.87;68.32
70826;SHT31;58446;41.490;22.098;2022-10-17T05:47:28;12.85;68.39
70826;SHT31;58446;41.490;22.098;2022-10-17T05:49:54;12.82;68.48
70826;SHT31;58446;41.490;22.098;2022-10-17T05:52:20;12.82;68.53
70826;SHT31;58446;41.490;22.098;2022-10-17T05:54:45;12.76;68.84
70826;SHT31;58446;41.490;22.098;2022-10-17T05:57:11;12.75;69.07
70826;SHT31;58446;41.490;22.098;2022-10-17T05:59:36;12.83;68.81
70826;SHT31;58446;41.490;22.098;2022-10-17T06:02:02;12.79;69.06
70826;SHT31;58446;41.490;22.098;2022-10-17T06:04:28;12.80;69.17
70826;SHT31;58446;41.490;22.098;2022-10-17T06:06:53;12.90;69.00
70826;SHT31;58446;41.490;22.098;2022-10-17T06:09:21;12.97;69.00
70826;SHT31;58446;41.490;22.098;2022-10-17T06:11:46;12.96;69.16
70826;SHT31;58446;41.490;22.098;2022-10-17T06:14:12;12.87;69.61
70826;SHT31;58446;41.490;22.098;2022-10-17T06:16:38;12.97;69.40
70826;SHT31;58446;41.490;22.098;2022-10-17T06:19:03;12.95;69.38
70826;SHT31;58446;41.490;22.098;2022-10-17T06:21:29;12.96;69.61
70826;SHT31;58446;41.490;22.098;2022-10-17T06:23:58;12.96;69.58
70826;SHT31;58446;41.490;22.098;2022-10-17T06:26:24;12.92;69.75
70826;SHT31;58446;41.490;22.098;2022-10-17T06:28:50;13.04;69.56
70826;SHT31;58446;41.490;22.098;2022-10-17T06:31:16;13.18;69.20
70826;SHT31;58446;41.490;22.098;2022-10-17T06:33:42;13.28;69.24
70826;SHT31;58446;41.490;22.098;2022-10-17T06:36:11;13.17;70.42
70826;SHT31;58446;41.490;22.098;2022-10-17T06:38:37;13.10;70.05
70826;SHT31;58446;41.490;22.098;2022-10-17T06:41:10;13.20;69.53
70826;SHT31;58446;41.490;22.098;2022-10-17T06:43:39;12.96;70.77
70826;SHT31;58446;41.490;22.098;2022-10-17T06:46:05;13.03;70.97
70826;SHT31;58446;41.490;22.098;2022-10-17T06:48:31;13.17;70.45
70826;SHT31;58446;41.490;22.098;2022-10-17T06:51:01;13.31;69.43
70826;SHT31;58446;41.490;22.098;2022-10-17T06:53:30;13.44;69.32
70826;SHT31;58446;41.490;22.098;2022-10-17T06:55:56;13.47;69.07
70826;SHT31;58446;41.490;22.098;2022-10-17T06:58:32;13.62;70.37
70826;SHT31;58446;41.490;22.098;2022-10-17T07:01:00;13.64;69.82
70826;SHT31;58446;41.490;22.098;2022-10-17T07:03:26;13.69;69.53
70826;SHT31;58446;41.490;22.098;2022-10-17T07:05:52;13.74;70.88
70826;SHT31;58446;41.490;22.098;2022-10-17T07:08:18;13.92;69.12
70826;SHT31;58446;41.490;22.098;2022-10-17T07:10:44;14.01;69.87
70826;SHT31;58446;41.490;22.098;2022-10-17T07:13:10;14.06;70.70
70826;SHT31;58446;41.490;22.098;2022-10-17T07:15:36;14.13;70.03
70826;SHT31;58446;41.490;22.098;2022-10-17T07:18:02;14.63;68.51
70826;SHT31;58446;41.490;22.098;2022-10-17T07:20:27;14.84;66.82
70826;SHT31;58446;41.490;22.098;2022-10-17T07:22:53;14.81;68.42
70826;SHT31;58446;41.490;22.098;2022-10-17T07:25:19;14.91;66.56
70826;SHT31;58446;41.490;22.098;2022-10-17T07:27:44;14.88;67.86
70826;SHT31;58446;41.490;22.098;2022-10-17T07:30:10;14.76;68.29
70826;SHT31;58446;41.490;22.098;2022-10-17T07:32:36;14.91;67.40
70826;SHT31;58446;41.490;22.098;2022-10-17T07:35:02;15.08;66.09
70826;SHT31;58446;41.490;22.098;2022-10-17T07:37:28;14.95;66.77
70826;SHT31;58446;41.490;22.098;2022-10-17T07:39:54;14.99;67.12
70826;SHT31;58446;41.490;22.098;2022-10-17T07:42:21;15.05;65.51
70826;SHT31;58446;41.490;22.098;2022-10-17T07:44:47;15.15;65.96
70826;SHT31;58446;41.490;22.098;2022-10-17T07:47:13;15.11;66.46
70826;SHT31;58446;41.490;22.098;2022-10-17T07:49:38;15.07;67.12
70826;SHT31;58446;41.490;22.098;2022-10-17T07:52:09;15.14;66.86
70826;SHT31;58446;41.490;22.098;2022-10-17T07:54:36;15.32;65.47
70826;SHT31;58446;41.490;22.098;2022-10-17T07:57:02;15.45;65.75
70826;SHT31;58446;41.490;22.098;2022-10-17T07:59:28;15.53;64.31
70826;SHT31;58446;41.490;22.098;2022-10-17T08:01:57;15.69;64.46
70826;SHT31;58446;41.490;22.098;2022-10-17T08:04:23;15.71;65.68
70826;SHT31;58446;41.490;22.098;2022-10-17T08:06:49;15.67;66.10
70826;SHT31;58446;41.490;22.098;2022-10-17T08:09:15;15.71;66.20
70826;SHT31;58446;41.490;22.098;2022-10-17T08:11:41;15.89;63.87
70826;SHT31;58446;41.490;22.098;2022-10-17T08:14:09;15.77;66.58
70826;SHT31;58446;41.490;22.098;2022-10-17T08:16:35;15.74;64.39
70826;SHT31;58446;41.490;22.098;2022-10-17T08:19:01;15.67;64.33
70826;SHT31;58446;41.490;22.098;2022-10-17T08:21:26;15.86;64.86
70826;SHT31;58446;41.490;22.098;2022-10-17T08:23:52;15.96;64.46
70826;SHT31;58446;41.490;22.098;2022-10-17T08:26:18;15.98;64.55
70826;SHT31;58446;41.490;22.098;2022-10-17T08:28:45;15.87;63.47
70826;SHT31;58446;41.490;22.098;2022-10-17T08:31:14;15.77;63.54
70826;SHT31;58446;41.490;22.098;2022-10-17T08:33:41;15.56;64.29
70826;SHT31;58446;41.490;22.098;2022-10-17T08:36:08;15.74;63.54
70826;SHT31;58446;41.490;22.098;2022-10-17T08:38:35;15.49;64.53
70826;SHT31;58446;41.490;22.098;2022-10-17T08:41:04;15.69;64.12
70826;SHT31;58446;41.490;22.098;2022-10-17T08:46:12;15.74;64.04
70826;SHT31;58446;41.490;22.098;2022-10-17T08:48:44;16.35;64.24
70826;SHT31;58446;41.490;22.098;2022-10-17T08:51:23;16.72;61.04
70826;SHT31;58446;41.490;22.098;2022-10-17T08:54:08;16.95;61.60
70826;SHT31;58446;41.490;22.098;2022-10-17T08:56:44;17.05;62.25
70826;SHT31;58446;41.490;22.098;2022-10-17T08:59:17;17.43;60.57
70826;SHT31;58446;41.490;22.098;2022-10-17T09:10:49;18.36;58.38
70826;SHT31;58446;41.490;22.098;2022-10-17T09:18:34;18.38;58.15
70826;SHT31;58446;41.490;22.098;2022-10-17T09:21:24;18.66;58.05
70826;SHT31;58446;41.490;22.098;2022-10-17T09:23:56;18.80;58.00
70826;SHT31;58446;41.490;22.098;2022-10-17T09:26:24;18.83;57.87
70826;SHT31;58446;41.490;22.098;2022-10-17T09:28:56;18.94;58.91
70826;SHT31;58446;41.490;22.098;2022-10-17T09:31:25;19.15;58.80
70826;SHT31;58446;41.490;22.098;2022-10-17T09:33:58;19.24;58.12
70826;SHT31;58446;41.490;22.098;2022-10-17T09:36:36;19.08;56.85
70826;SHT31;58446;41.490;22.098;2022-10-17T09:39:17;19.01;57.03
70826;SHT31;58446;41.490;22.098;2022-10-17T09:41:53;18.90;57.44
70826;SHT31;58446;41.490;22.098;2022-10-17T09:44:31;18.88;57.43
70826;SHT31;58446;41.490;22.098;2022-10-17T09:49:46;18.94;58.27
70826;SHT31;58446;41.490;22.098;2022-10-17T09:54:59;19.31;59.24
70826;SHT31;58446;41.490;22.098;2022-10-17T09:57:26;19.38;58.58
70826;SHT31;58446;41.490;22.098;2022-10-17T09:59:58;19.58;57.87
70826;SHT31;58446;41.490;22.098;2022-10-17T10:02:25;19.87;57.09
70826;SHT31;58446;41.490;22.098;2022-10-17T10:05:03;20.03;56.45
70826;SHT31;58446;41.490;22.098;2022-10-17T10:07:33;20.21;56.55
70826;SHT31;58446;41.490;22.098;2022-10-17T10:10:00;20.24;54.86
70826;SHT31;58446;41.490;22.098;2022-10-17T10:12:30;20.17;55.03
70826;SHT31;58446;41.490;22.098;2022-10-17T10:14:56;20.38;54.88
70826;SHT31;58446;41.490;22.098;2022-10-17T10:17:38;20.58;54.76
70826;SHT31;58446;41.490;22.098;2022-10-17T10:20:31;20.34;54.39
70826;SHT31;58446;41.490;22.098;2022-10-17T10:23:15;20.21;54.95
70826;SHT31;58446;41.490;22.098;2022-10-17T10:25:57;20.47;55.42
70826;SHT31;58446;41.490;22.098;2022-10-17T10:28:33;20.55;54.53
70826;SHT31;58446;41.490;22.098;2022-10-17T10:31:02;20.38;55.46
70826;SHT31;58446;41.490;22.098;2022-10-17T10:33:31;20.38;55.15
70826;SHT31;58446;41.490;22.098;2022-10-17T10:36:00;20.51;56.14
70826;SHT31;58446;41.490;22.098;2022-10-17T10:38:28;20.50;55.71
70826;SHT31;58446;41.490;22.098;2022-10-17T10:40:56;20.34;54.66
70826;SHT31;58446;41.490;22.098;2022-10-17T10:45:56;20.23;55.42
70826;SHT31;58446;41.490;22.098;2022-10-17T10:48:26;20.45;55.40
70826;SHT31;58446;41.490;22.098;2022-10-17T10:51:03;20.31;54.56
70826;SHT31;58446;41.490;22.098;2022-10-17T10:53:37;20.44;53.99
70826;SHT31;58446;41.490;22.098;2022-10-17T10:56:19;20.23;55.04
70826;SHT31;58446;41.490;22.098;2022-10-17T11:04:03;20.72;51.73
70826;SHT31;58446;41.490;22.098;2022-10-17T11:06:35;20.87;51.33
70826;SHT31;58446;41.490;22.098;2022-10-17T11:09:41;20.74;50.47
70826;SHT31;58446;41.490;22.098;2022-10-17T11:14:50;20.55;52.27
70826;SHT31;58446;41.490;22.098;2022-10-17T11:17:28;20.54;54.08
70826;SHT31;58446;41.490;22.098;2022-10-17T11:22:37;20.64;53.70
70826;SHT31;58446;41.490;22.098;2022-10-17T11:27:36;20.63;51.92
70826;SHT31;58446;41.490;22.098;2022-10-17T11:30:02;20.69;52.41
70826;SHT31;58446;41.490;22.098;2022-10-17T11:35:15;20.92;51.43
70826;SHT31;58446;41.490;22.098;2022-10-17T11:37:49;20.78;51.11
70826;SHT31;58446;41.490;22.098;2022-10-17T11:40:22;20.85;51.19
70826;SHT31;58446;41.490;22.098;2022-10-17T11:42:57;20.98;50.47
70826;SHT31;58446;41.490;22.098;2022-10-17T11:45:27;20.89;50.01
70826;SHT31;58446;41.490;22.098;2022-10-17T11:50:39;21.13;48.05
70826;SHT31;58446;41.490;22.098;2022-10-17T11:53:18;21.16;46.76
70826;SHT31;58446;41.490;22.098;2022-10-17T11:55:45;20.99;47.08
70826;SHT31;58446;41.490;22.098;2022-10-17T11:58:34;20.71;47.89
70826;SHT31;58446;41.490;22.098;2022-10-17T12:04:11;20.61;47.86
70826;SHT31;58446;41.490;22.098;2022-10-17T12:09:37;20.64;48.29
70826;SHT31;58446;41.490;22.098;2022-10-17T12:12:05;20.78;48.92
70826;SHT31;58446;41.490;22.098;2022-10-17T12:14:42;20.87;48.78
70826;SHT31;58446;41.490;22.098;2022-10-17T12:17:36;20.77;48.20
70826;SHT31;58446;41.490;22.098;2022-10-17T12:25:22;21.03;47.68
70826;SHT31;58446;41.490;22.098;2022-10-17T12:27:49;21.06;46.75
70826;SHT31;58446;41.490;22.098;2022-10-17T12:30:22;21.19;47.08
70826;SHT31;58446;41.490;22.098;2022-10-17T12:33:03;21.23;46.77
70826;SHT31;58446;41.490;22.098;2022-10-17T12:35:32;21.39;46.45
70826;SHT31;58446;41.490;22.098;2022-10-17T12:38:04;21.46;45.23
70826;SHT31;58446;41.490;22.098;2022-10-17T12:46:01;21.61;45.09
70826;SHT31;58446;41.490;22.098;2022-10-17T12:51:09;21.76;44.79
70826;SHT31;58446;41.490;22.098;2022-10-17T12:53:52;21.63;44.56
70826;SHT31;58446;41.490;22.098;2022-10-17T12:56:38;21.67;43.37
70826;SHT31;58446;41.490;22.098;2022-10-17T12:59:46;21.67;43.32
70826;SHT31;58446;41.490;22.098;2022-10-17T13:02:14;21.73;42.04
70826;SHT31;58446;41.490;22.098;2022-10-17T13:04:41;21.66;43.14
70826;SHT31;58446;41.490;22.098;2022-10-17T13:07:15;21.71;42.75
70826;SHT31;58446;41.490;22.098;2022-10-17T13:09:43;21.78;41.65
70826;SHT31;58446;41.490;22.098;2022-10-17T13:12:13;21.81;41.80
70826;SHT31;58446;41.490;22.098;2022-10-17T13:14:41;21.59;43.37
70826;SHT31;58446;41.490;22.098;2022-10-17T13:17:24;21.46;44.15
70826;SHT31;58446;41.490;22.098;2022-10-17T13:19:50;21.54;43.18
70826;SHT31;58446;41.490;22.098;2022-10-17T13:22:29;21.70;42.95
70826;SHT31;58446;41.490;22.098;2022-10-17T13:25:24;21.73;42.09
70826;SHT31;58446;41.490;22.098;2022-10-17T13:28:02;21.83;40.92
70826;SHT31;58446;41.490;22.098;2022-10-17T13:30:31;21.78;40.35
70826;SHT31;58446;41.490;22.098;2022-10-17T13:32:57;21.83;40.03
70826;SHT31;58446;41.490;22.098;2022-10-17T13:35:24;21.84;38.89
70826;SHT31;58446;41.490;22.098;2022-10-17T13:37:51;21.87;39.89
70826;SHT31;58446;41.490;22.098;2022-10-17T13:40:23;21.56;41.16
70826;SHT31;58446;41.490;22.098;2022-10-17T13:42:50;21.71;40.08
70826;SHT31;58446;41.490;22.098;2022-10-17T13:47:52;21.73;37.74
70826;SHT31;58446;41.490;22.098;2022-10-17T13:50:31;21.69;39.44
70826;SHT31;58446;41.490;22.098;2022-10-17T13:55:58;21.69;37.19
70826;SHT31;58446;41.490;22.098;2022-10-17T13:58:25;21.69;36.84
70826;SHT31;58446;41.490;22.098;2022-10-17T14:00:54;21.67;38.01
70826;SHT31;58446;41.490;22.098;2022-10-17T14:03:21;21.67;37.36
70826;SHT31;58446;41.490;22.098;2022-10-17T14:06:07;21.70;37.05
70826;SHT31;58446;41.490;22.098;2022-10-17T14:08:37;21.78;36.81
70826;SHT31;58446;41.490;22.098;2022-10-17T14:11:24;21.73;37.32
70826;SHT31;58446;41.490;22.098;2022-10-17T14:13:52;21.70;36.99
70826;SHT31;58446;41.490;22.098;2022-10-17T14:16:20;21.54;37.97
70826;SHT31;58446;41.490;22.098;2022-10-17T14:18:48;21.60;37.81
70826;SHT31;58446;41.490;22.098;2022-10-17T14:21:25;21.69;37.34
70826;SHT31;58446;41.490;22.098;2022-10-17T14:24:25;21.56;38.16
70826;SHT31;58446;41.490;22.098;2022-10-17T14:26:54;21.59;38.15
70826;SHT31;58446;41.490;22.098;2022-10-17T14:29:25;21.63;38.11
70826;SHT31;58446;41.490;22.098;2022-10-17T14:32:11;21.54;37.37
70826;SHT31;58446;41.490;22.098;2022-10-17T14:34:39;21.46;38.18
70826;SHT31;58446;41.490;22.098;2022-10-17T14:37:10;21.39;38.54
70826;SHT31;58446;41.490;22.098;2022-10-17T14:39:37;21.39;40.09
70826;SHT31;58446;41.490;22.098;2022-10-17T14:42:03;21.40;39.41
70826;SHT31;58446;41.490;22.098;2022-10-17T14:44:31;21.28;39.56
70826;SHT31;58446;41.490;22.098;2022-10-17T14:47:03;21.22;39.63
70826;SHT31;58446;41.490;22.098;2022-10-17T14:49:37;21.10;39.79
70826;SHT31;58446;41.490;22.098;2022-10-17T14:54:40;21.00;40.53
70826;SHT31;58446;41.490;22.098;2022-10-17T14:57:21;20.96;40.94
70826;SHT31;58446;41.490;22.098;2022-10-17T14:59:48;20.98;42.34
70826;SHT31;58446;41.490;22.098;2022-10-17T15:02:13;20.98;43.19
70826;SHT31;58446;41.490;22.098;2022-10-17T15:04:39;20.91;43.37
70826;SHT31;58446;41.490;22.098;2022-10-17T15:07:05;20.89;43.08
70826;SHT31;58446;41.490;22.098;2022-10-17T15:09:31;20.87;43.40
70826;SHT31;58446;41.490;22.098;2022-10-17T15:12:01;20.87;44.26
70826;SHT31;58446;41.490;22.098;2022-10-17T15:14:27;20.75;44.42
70826;SHT31;58446;41.490;22.098;2022-10-17T15:16:53;20.71;43.96
70826;SHT31;58446;41.490;22.098;2022-10-17T15:19:18;20.71;44.56
70826;SHT31;58446;41.490;22.098;2022-10-17T15:21:44;20.68;45.32
70826;SHT31;58446;41.490;22.098;2022-10-17T15:24:10;20.50;44.43
70826;SHT31;58446;41.490;22.098;2022-10-17T15:26:36;20.44;45.36
70826;SHT31;58446;41.490;22.098;2022-10-17T15:29:02;20.37;46.78
70826;SHT31;58446;41.490;22.098;2022-10-17T15:31:28;20.23;46.25
70826;SHT31;58446;41.490;22.098;2022-10-17T15:33:55;20.26;46.62
70826;SHT31;58446;41.490;22.098;2022-10-17T15:38:51;20.00;48.00
70826;SHT31;58446;41.490;22.098;2022-10-17T15:41:19;19.90;48.96
70826;SHT31;58446;41.490;22.098;2022-10-17T15:43:46;19.76;49.48
70826;SHT31;58446;41.490;22.098;2022-10-17T15:46:18;19.65;50.04
70826;SHT31;58446;41.490;22.098;2022-10-17T15:48:45;19.58;51.24
70826;SHT31;58446;41.490;22.098;2022-10-17T15:51:11;19.51;51.45
70826;SHT31;58446;41.490;22.098;2022-10-17T15:53:37;19.41;52.44
70826;SHT31;58446;41.490;22.098;2022-10-17T15:56:03;19.36;53.23
70826;SHT31;58446;41.490;22.098;2022-10-17T15:58:37;19.27;54.32
70826;SHT31;58446;41.490;22.098;2022-10-17T16:01:04;19.15;53.45
70826;SHT31;58446;41.490;22.098;2022-10-17T16:03:31;19.10;52.94
70826;SHT31;58446;41.490;22.098;2022-10-17T16:05:57;19.07;52.76
70826;SHT31;58446;41.490;22.098;2022-10-17T16:08:23;18.98;53.80
70826;SHT31;58446;41.490;22.098;2022-10-17T16:10:50;18.98;52.47
70826;SHT31;58446;41.490;22.098;2022-10-17T16:13:21;18.91;53.54
70826;SHT31;58446;41.490;22.098;2022-10-17T16:15:47;18.97;53.35
70826;SHT31;58446;41.490;22.098;2022-10-17T16:18:13;18.90;54.84
70826;SHT31;58446;41.490;22.098;2022-10-17T16:20:39;18.73;55.94
70826;SHT31;58446;41.490;22.098;2022-10-17T16:23:05;18.49;56.99
70826;SHT31;58446;41.490;22.098;2022-10-17T16:25:33;18.33;56.71
70826;SHT31;58446;41.490;22.098;2022-10-17T16:27:59;18.18;56.31
70826;SHT31;58446;41.490;22.098;2022-10-17T16:30:27;18.15;55.21
70826;SHT31;58446;41.490;22.098;2022-10-17T16:32:55;18.18;55.34
70826;SHT31;58446;41.490;22.098;2022-10-17T16:35:24;18.01;56.59
70826;SHT31;58446;41.490;22.098;2022-10-17T16:37:51;17.91;57.73
70826;SHT31;58446;41.490;22.098;2022-10-17T16:40:18;17.81;58.73
70826;SHT31;58446;41.490;22.098;2022-10-17T16:42:44;17.82;58.00
70826;SHT31;58446;41.490;22.098;2022-10-17T16:45:18;17.94;57.32
70826;SHT31;58446;41.490;22.098;2022-10-17T16:47:45;17.78;57.98
70826;SHT31;58446;41.490;22.098;2022-10-17T16:50:11;17.68;57.58
70826;SHT31;58446;41.490;22.098;2022-10-17T16:52:37;17.78;57.19
70826;SHT31;58446;41.490;22.098;2022-10-17T16:55:03;17.88;57.07
70826;SHT31;58446;41.490;22.098;2022-10-17T16:57:29;18.06;56.53
70826;SHT31;58446;41.490;22.098;2022-10-17T16:59:55;18.02;56.57
70826;SHT31;58446;41.490;22.098;2022-10-17T17:02:22;17.84;57.07
70826;SHT31;58446;41.490;22.098;2022-10-17T17:04:49;17.78;57.46
70826;SHT31;58446;41.490;22.098;2022-10-17T17:07:14;17.75;57.37
70826;SHT31;58446;41.490;22.098;2022-10-17T17:09:42;17.51;58.20